Time;durP1;ratioP1;P1;durP2;ratioP2;P2;SDS_P1;SDS_P2;PMS_P1;PMS_P2;Temp;Humidity;BMP_temperature;BMP_pressure;BME280_temperature;BME280_humidity;BME280_pressure;Samples;Min_cycle;Max_cycle;Signal;HPM_P1;HPM_P2
2022/06/27 00:00:51;;;;;;;9.95;8.13;;;;;;;17.21;92.20;101417.72;5096779;28;20423;-59
2022/06/27 00:03:16;;;;;;;13.98;9.60;;;;;;;17.24;91.62;101414.09;5096942;28;20035;-59
2022/06/27 00:05:41;;;;;;;15.82;9.15;;;;;;;17.27;91.49;101409.59;5096766;28;20434;-59
2022/06/27 00:08:07;;;;;;;11.55;8.50;;;;;;;17.24;92.17;101408.81;5096595;28;20032;-58
2022/06/27 00:10:32;;;;;;;10.43;8.38;;;;;;;17.25;93.10;101416.72;5096546;28;20028;-58
2022/06/27 00:12:58;;;;;;;11.68;9.15;;;;;;;17.20;92.75;101409.81;5096257;28;20067;-59
2022/06/27 00:15:23;;;;;;;12.13;8.82;;;;;;;17.25;92.35;101405.25;5096555;28;20028;-59
2022/06/27 00:17:49;;;;;;;10.93;9.00;;;;;;;17.24;93.25;101419.41;5096661;28;20502;-59
2022/06/27 00:20:14;;;;;;;13.68;9.75;;;;;;;17.20;93.45;101417.75;5096423;28;20032;-59
2022/06/27 00:22:40;;;;;;;11.60;8.77;;;;;;;17.22;93.93;101422.09;5096592;28;20028;-58
2022/06/27 00:25:07;;;;;;;10.13;8.73;;;;;;;17.22;93.58;101423.88;5096237;28;20085;-58
2022/06/27 00:27:32;;;;;;;14.85;9.95;;;;;;;17.15;93.17;101428.47;5096432;28;20458;-59
2022/06/27 00:29:57;;;;;;;11.90;9.55;;;;;;;17.17;93.83;101433.72;5096663;28;20072;-59
2022/06/27 00:32:23;;;;;;;13.75;8.73;;;;;;;17.17;93.12;101436.38;5097101;28;20100;-60
2022/06/27 00:34:49;;;;;;;10.82;8.18;;;;;;;17.14;92.95;101433.84;5096329;28;20104;-58
2022/06/27 00:37:15;;;;;;;10.43;8.50;;;;;;;17.18;92.32;101438.09;5095807;28;20031;-58
2022/06/27 00:39:40;;;;;;;10.95;8.55;;;;;;;17.17;92.88;101426.66;5095952;28;20120;-58
2022/06/27 00:42:06;;;;;;;11.43;8.80;;;;;;;17.16;93.00;101437.28;5095881;28;20431;-59
2022/06/27 00:44:40;;;;;;;11.93;8.73;;;;;;;17.15;92.77;101440.84;5095976;28;20027;-58
2022/06/27 00:47:08;;;;;;;13.23;9.73;;;;;;;17.17;93.19;101439.88;5096190;28;20100;-60
2022/06/27 00:49:35;;;;;;;12.82;9.93;;;;;;;17.15;93.22;101447.00;5096396;28;20351;-58
2022/06/27 00:52:03;;;;;;;13.35;9.88;;;;;;;17.15;94.07;101448.75;5095723;28;20031;-59
2022/06/27 00:54:28;;;;;;;12.85;9.63;;;;;;;17.18;93.69;101449.53;5095828;28;20057;-59
2022/06/27 00:56:54;;;;;;;13.45;9.65;;;;;;;17.19;93.51;101447.75;5095915;28;20112;-59
2022/06/27 00:59:19;;;;;;;15.05;10.73;;;;;;;17.19;92.96;101447.75;5095678;28;20035;-58
2022/06/27 01:01:45;;;;;;;12.43;10.05;;;;;;;17.16;92.67;101443.44;5095677;28;20085;-57
2022/06/27 01:04:10;;;;;;;11.38;9.98;;;;;;;17.15;93.07;101446.13;5095539;28;20043;-57
2022/06/27 01:06:36;;;;;;;13.32;9.77;;;;;;;17.18;93.37;101448.69;5095372;28;20389;-58
2022/06/27 01:09:02;;;;;;;12.80;10.18;;;;;;;17.15;94.09;101440.84;5095725;28;20038;-58
2022/06/27 01:11:28;;;;;;;12.20;9.45;;;;;;;17.15;94.25;101446.13;5095595;28;20111;-59
2022/06/27 01:13:53;;;;;;;12.07;9.43;;;;;;;17.15;93.47;101451.41;5095606;28;20059;-59
2022/06/27 01:16:19;;;;;;;12.77;9.25;;;;;;;17.19;93.58;101447.75;5095521;28;20090;-58
2022/06/27 01:18:44;;;;;;;15.25;9.65;;;;;;;17.19;93.75;101451.28;5095485;28;20105;-58
2022/06/27 01:21:23;;;;;;;12.05;8.98;;;;;;;17.21;93.86;101454.75;5095314;28;20393;-58
2022/06/27 01:23:49;;;;;;;13.48;9.60;;;;;;;17.18;94.23;101453.97;5095306;28;20115;-58
2022/06/27 01:26:15;;;;;;;16.35;9.35;;;;;;;17.19;94.96;101453.06;5095331;28;20439;-58
2022/06/27 01:28:40;;;;;;;11.63;9.23;;;;;;;17.19;94.51;101450.41;5095303;28;20040;-57
2022/06/27 01:31:05;;;;;;;9.77;8.75;;;;;;;17.14;94.56;101445.28;5094673;28;20032;-57
2022/06/27 01:33:31;;;;;;;13.40;9.18;;;;;;;17.17;94.44;101439.00;5095028;28;20387;-58
2022/06/27 01:38:41;;;;;;;13.18;9.23;;;;;;;17.12;95.31;101431.25;5095570;28;20371;-58
2022/06/27 01:41:06;;;;;;;12.65;10.02;;;;;;;17.09;94.30;101427.81;5095187;28;20039;-58
2022/06/27 01:43:32;;;;;;;12.27;9.73;;;;;;;17.03;95.30;101413.00;5095198;28;20028;-57
2022/06/27 01:45:57;;;;;;;11.05;9.30;;;;;;;17.08;95.33;101410.22;5095044;28;20046;-59
2022/06/27 01:48:24;;;;;;;13.20;9.77;;;;;;;17.08;95.17;101404.94;5096954;28;20032;-59
2022/06/27 01:50:50;;;;;;;12.85;10.02;;;;;;;17.06;95.49;101415.56;5101456;28;20503;-58
2022/06/27 01:53:16;;;;;;;12.57;9.80;;;;;;;17.02;95.62;101417.41;5101789;28;20031;-57
2022/06/27 01:55:42;;;;;;;13.73;10.18;;;;;;;17.08;95.74;101415.50;5102298;28;20036;-58
2022/06/27 01:58:07;;;;;;;13.55;10.20;;;;;;;17.04;95.96;101410.31;5101774;28;20042;-59
2022/06/27 02:00:33;;;;;;;12.60;10.02;;;;;;;17.05;96.07;101404.09;5101734;28;20032;-58
2022/06/27 02:02:59;;;;;;;13.25;9.65;;;;;;;17.08;95.66;101403.16;5101334;28;20036;-57
2022/06/27 02:05:24;;;;;;;11.73;9.95;;;;;;;17.01;95.97;101409.53;5101418;28;20443;-59
2022/06/27 02:07:51;;;;;;;11.55;9.85;;;;;;;16.99;96.16;101403.41;5101482;28;20047;-57
2022/06/27 02:10:16;;;;;;;13.38;10.10;;;;;;;17.00;96.67;101407.78;5102022;28;20036;-59
2022/06/27 02:12:42;;;;;;;13.20;10.30;;;;;;;16.99;95.25;101399.00;5101433;28;20384;-59
2022/06/27 02:15:07;;;;;;;15.23;10.25;;;;;;;16.94;95.51;101398.31;5101509;28;20032;-58
2022/06/27 02:17:33;;;;;;;12.63;9.98;;;;;;;16.83;96.42;101388.94;5101195;28;20028;-59
2022/06/27 02:19:59;;;;;;;15.70;10.88;;;;;;;16.77;96.24;101383.88;5101369;28;20024;-58
2022/06/27 02:22:25;;;;;;;17.60;10.73;;;;;;;16.75;96.93;101385.69;5101482;28;20024;-59
2022/06/27 02:24:50;;;;;;;12.25;10.18;;;;;;;16.76;96.92;101377.72;5101586;28;20047;-58
2022/06/27 02:27:16;;;;;;;14.00;9.93;;;;;;;16.76;97.19;101376.84;5101719;28;20399;-58
2022/06/27 02:29:42;;;;;;;12.02;10.07;;;;;;;16.85;96.67;101379.19;5101121;28;20079;-58
2022/06/27 02:32:09;;;;;;;13.05;10.48;;;;;;;16.87;96.72;101375.59;5101584;28;20060;-59
2022/06/27 02:34:37;;;;;;;13.38;11.07;;;;;;;16.84;97.21;101377.47;5101355;28;20093;-58
2022/06/27 02:37:03;;;;;;;15.73;11.40;;;;;;;16.85;97.50;101385.34;5101423;28;20101;-58
2022/06/27 02:39:32;;;;;;;13.43;11.07;;;;;;;16.87;97.13;101386.16;5101386;28;20044;-57
2022/06/27 02:42:01;;;;;;;14.55;10.93;;;;;;;16.83;97.82;101387.16;5101138;28;20056;-59
2022/06/27 02:44:26;;;;;;;14.48;11.35;;;;;;;16.83;97.81;101381.00;5101188;28;20028;-58
2022/06/27 02:46:52;;;;;;;13.88;11.10;;;;;;;16.79;98.04;101374.13;5101808;28;20046;-58
2022/06/27 02:49:19;;;;;;;14.52;10.95;;;;;;;16.78;98.29;101362.69;5101166;28;20043;-58
2022/06/27 02:52:06;;;;;;;12.07;10.57;;;;;;;16.80;97.80;101355.53;5101333;28;20410;-58
2022/06/27 02:54:40;;;;;;;13.25;10.98;;;;;;;16.74;98.83;101353.09;5101098;28;20039;-58
2022/06/27 02:57:38;;;;;;;13.10;10.18;;;;;;;16.72;99.07;101347.00;5101559;28;20111;-60
2022/06/27 03:00:07;;;;;;;14.40;11.27;;;;;;;16.64;98.72;101338.41;5091440;28;20032;-58
2022/06/27 03:02:35;;;;;;;15.55;11.50;;;;;;;16.60;98.98;101353.50;5098226;28;20326;-56
2022/06/27 03:05:00;;;;;;;16.27;11.27;;;;;;;16.51;98.99;101347.59;5097739;28;20103;-58
2022/06/27 03:07:26;;;;;;;15.13;11.57;;;;;;;16.46;99.17;101331.00;5097992;28;20074;-58
2022/06/27 03:09:51;;;;;;;14.02;11.18;;;;;;;16.39;99.13;101334.75;5098100;28;20028;-58
2022/06/27 03:12:16;;;;;;;15.13;10.93;;;;;;;16.27;99.99;101333.34;5097859;28;20110;-57
2022/06/27 03:14:41;;;;;;;13.55;11.43;;;;;;;16.22;100.00;101336.13;5097693;28;20031;-58
2022/06/27 03:17:07;;;;;;;13.32;11.00;;;;;;;16.18;100.00;101323.91;5097545;28;20032;-58
2022/06/27 03:19:32;;;;;;;15.57;12.02;;;;;;;16.15;100.00;101328.41;5097499;28;20063;-58
2022/06/27 03:21:57;;;;;;;18.95;11.88;;;;;;;16.14;100.00;101339.88;5097267;28;20117;-58
2022/06/27 03:24:23;;;;;;;14.70;11.48;;;;;;;16.12;100.00;101339.91;5097860;28;20032;-59
2022/06/27 03:26:48;;;;;;;15.30;11.60;;;;;;;16.12;100.00;101336.41;5097436;28;20115;-59
2022/06/27 03:29:14;;;;;;;15.27;11.48;;;;;;;16.14;100.00;101335.47;5097042;28;20492;-59
2022/06/27 03:31:40;;;;;;;14.88;11.38;;;;;;;16.10;100.00;101336.50;5097783;28;20040;-58
2022/06/27 03:34:06;;;;;;;14.13;11.48;;;;;;;16.04;100.00;101334.00;5097591;28;20366;-59
2022/06/27 03:36:31;;;;;;;13.82;11.93;;;;;;;15.95;100.00;101337.75;5097959;28;20043;-57
2022/06/27 03:38:56;;;;;;;15.57;11.85;;;;;;;15.92;100.00;101335.22;5097150;28;20089;-58
2022/06/27 03:41:22;;;;;;;14.25;12.05;;;;;;;15.88;100.00;101336.22;5097064;28;20028;-58
2022/06/27 03:43:47;;;;;;;15.95;11.85;;;;;;;15.86;100.00;101331.88;5097157;28;20487;-57
2022/06/27 03:46:12;;;;;;;15.70;12.02;;;;;;;15.87;100.00;101336.25;5097515;28;20043;-57
2022/06/27 03:51:21;;;;;;;14.30;12.45;;;;;;;15.79;100.00;101339.09;5097016;28;20051;-58
2022/06/27 03:53:47;;;;;;;17.85;12.80;;;;;;;15.78;100.00;101347.03;5096889;28;20028;-58
2022/06/27 03:56:12;;;;;;;15.80;13.25;;;;;;;15.77;100.00;101351.44;5097185;28;20063;-59
2022/06/27 03:58:37;;;;;;;16.88;13.27;;;;;;;15.76;100.00;101349.72;5096897;28;20442;-59
2022/06/27 04:01:03;;;;;;;15.23;12.23;;;;;;;15.73;100.00;101352.47;5096941;28;20077;-59
2022/06/27 04:03:30;;;;;;;16.77;12.77;;;;;;;15.71;100.00;101363.97;5096494;28;20473;-59
2022/06/27 04:05:55;;;;;;;17.23;13.43;;;;;;;15.72;100.00;101371.84;5096606;28;20070;-58
2022/06/27 04:08:20;;;;;;;15.65;12.95;;;;;;;15.74;100.00;101351.56;5097448;28;20064;-59
2022/06/27 04:10:45;;;;;;;17.65;13.45;;;;;;;15.86;100.00;101353.84;5096966;28;20043;-59
2022/06/27 04:13:11;;;;;;;17.73;13.85;;;;;;;15.98;100.00;101352.66;5096486;28;20085;-57
2022/06/27 04:15:36;;;;;;;20.33;15.18;;;;;;;16.06;100.00;101355.09;5096507;28;20066;-58
2022/06/27 04:18:01;;;;;;;21.10;15.02;;;;;;;16.15;100.00;101353.03;5096463;28;20032;-57
2022/06/27 04:20:27;;;;;;;19.60;14.90;;;;;;;16.26;100.00;101345.69;5095983;28;20366;-57
2022/06/27 04:22:52;;;;;;;20.17;13.68;;;;;;;16.36;100.00;101333.06;5096304;28;20039;-59
2022/06/27 04:25:17;;;;;;;14.57;13.05;;;;;;;16.41;100.00;101323.25;5096337;28;20412;-59
2022/06/27 04:27:43;;;;;;;18.52;13.13;;;;;;;16.56;100.00;101328.06;5096589;28;20024;-58
2022/06/27 04:30:15;;;;;;;16.42;13.15;;;;;;;16.60;100.00;101320.91;5096109;28;20044;-58
2022/06/27 04:32:41;;;;;;;16.50;12.90;;;;;;;16.66;100.00;101315.47;5097059;28;20092;-58
2022/06/27 04:35:07;;;;;;;17.95;13.98;;;;;;;16.69;100.00;101310.94;5096109;28;20330;-58
2022/06/27 04:37:32;;;;;;;16.35;14.07;;;;;;;16.70;100.00;101296.81;5096163;28;20032;-58
2022/06/27 04:39:58;;;;;;;17.23;14.27;;;;;;;16.73;100.00;101282.66;5095955;28;20032;-59
2022/06/27 04:42:23;;;;;;;19.60;16.27;;;;;;;16.71;100.00;101281.84;5096056;28;20078;-58
2022/06/27 04:44:48;;;;;;;18.25;15.45;;;;;;;16.74;100.00;101294.97;5096300;28;20032;-58
2022/06/27 04:47:14;;;;;;;20.83;16.63;;;;;;;16.71;100.00;101295.03;5095815;28;20180;-58
2022/06/27 04:49:41;;;;;;;18.88;15.57;;;;;;;16.79;100.00;101293.03;5078543;28;20031;-58
2022/06/27 04:52:07;;;;;;;21.42;16.20;;;;;;;16.80;100.00;101300.03;5095651;28;20036;-59
2022/06/27 04:54:33;;;;;;;23.02;17.02;;;;;;;16.82;100.00;101308.78;5095797;28;20457;-59
2022/06/27 04:56:59;;;;;;;22.77;15.40;;;;;;;16.90;100.00;101313.84;5095993;28;20346;-58
2022/06/27 04:59:24;;;;;;;19.58;17.27;;;;;;;16.87;99.60;101317.44;5095508;28;20024;-57
2022/06/27 05:01:50;;;;;;;22.13;17.70;;;;;;;16.92;99.34;101315.53;5095557;28;20442;-58
2022/06/27 05:04:17;;;;;;;20.05;16.67;;;;;;;16.87;99.66;101306.84;5095374;28;20115;-58
2022/06/27 05:06:43;;;;;;;21.23;18.17;;;;;;;16.79;99.69;101300.97;5095476;28;20439;-57
2022/06/27 05:09:08;;;;;;;23.83;18.13;;;;;;;16.72;100.00;101293.28;5095760;28;20042;-57
2022/06/27 05:11:33;;;;;;;23.42;18.58;;;;;;;16.70;100.00;101290.66;5095195;28;20110;-59
2022/06/27 05:13:59;;;;;;;21.52;19.00;;;;;;;16.68;100.00;101280.16;5095555;28;20439;-58
2022/06/27 05:16:24;;;;;;;23.13;18.80;;;;;;;16.67;100.00;101282.84;5095388;28;20096;-58
2022/06/27 05:18:50;;;;;;;22.85;18.73;;;;;;;16.64;100.00;101290.84;5094962;28;20123;-57
2022/06/27 05:21:16;;;;;;;23.52;19.05;;;;;;;16.65;100.00;101300.50;5095476;28;20444;-60
2022/06/27 05:23:41;;;;;;;23.50;18.92;;;;;;;16.65;100.00;101305.78;5094573;28;20127;-56
2022/06/27 05:26:06;;;;;;;23.02;19.42;;;;;;;16.68;100.00;101309.22;5095411;28;20097;-56
2022/06/27 05:28:32;;;;;;;24.83;19.73;;;;;;;16.69;100.00;101302.16;5095127;28;20412;-56
2022/06/27 05:30:57;;;;;;;25.15;19.40;;;;;;;16.69;100.00;101302.16;5094958;28;20098;-56
2022/06/27 05:33:23;;;;;;;22.02;19.48;;;;;;;16.69;100.00;101310.94;5095095;28;20386;-57
2022/06/27 05:35:50;;;;;;;24.48;19.83;;;;;;;16.72;100.00;101343.47;5095285;28;20032;-57
2022/06/27 05:38:15;;;;;;;26.15;21.08;;;;;;;16.70;100.00;101367.31;5095250;28;20039;-57
2022/06/27 05:40:41;;;;;;;25.23;19.65;;;;;;;16.73;100.00;101372.50;5095112;28;20079;-57
2022/06/27 05:43:07;;;;;;;26.58;20.48;;;;;;;16.84;100.00;101391.53;5095151;28;20056;-57
2022/06/27 05:45:33;;;;;;;24.88;19.38;;;;;;;16.89;100.00;101389.63;5095150;28;20032;-58
2022/06/27 05:48:01;;;;;;;23.00;19.13;;;;;;;17.03;100.00;101392.72;5095323;28;20028;-58
2022/06/27 05:50:27;;;;;;;24.55;19.38;;;;;;;17.08;100.00;101405.78;5094709;28;20515;-58
2022/06/27 05:52:53;;;;;;;27.48;20.40;;;;;;;17.15;100.00;101422.31;5095108;28;20465;-57
2022/06/27 05:55:21;;;;;;;24.30;19.80;;;;;;;17.18;99.46;101427.53;5095040;28;20035;-56
2022/06/27 05:57:47;;;;;;;23.10;19.50;;;;;;;17.19;98.20;101423.97;5094861;28;20111;-56
2022/06/27 06:00:13;;;;;;;24.25;19.02;;;;;;;17.23;97.84;101425.59;5094882;28;20393;-59
2022/06/27 06:02:38;;;;;;;25.95;20.80;;;;;;;17.21;98.72;101423.00;5094447;28;20070;-58
2022/06/27 06:05:04;;;;;;;23.10;20.08;;;;;;;17.19;98.25;101414.25;5102047;28;20027;-57
2022/06/27 06:07:30;;;;;;;23.60;19.20;;;;;;;17.28;97.70;101402.53;5115523;28;20040;-58
2022/06/27 06:09:55;;;;;;;26.48;19.77;;;;;;;17.26;98.23;101391.13;5115209;28;20050;-58
2022/06/27 06:12:21;;;;;;;26.55;19.90;;;;;;;17.32;98.16;101394.41;5115342;28;20035;-57
2022/06/27 06:14:47;;;;;;;24.98;19.30;;;;;;;17.33;98.66;101395.28;5115112;28;20031;-57
2022/06/27 06:17:13;;;;;;;29.50;20.48;;;;;;;17.25;99.12;101398.19;5114713;28;20027;-58
2022/06/27 06:19:38;;;;;;;25.48;19.40;;;;;;;17.29;99.68;101405.13;5115065;28;20038;-58
2022/06/27 06:22:05;;;;;;;25.20;19.63;;;;;;;17.30;100.00;101408.63;5114929;28;20414;-59
2022/06/27 06:24:30;;;;;;;22.08;19.58;;;;;;;17.29;99.41;101414.84;5115199;28;20027;-59
2022/06/27 06:26:56;;;;;;;22.85;20.10;;;;;;;17.31;99.45;101442.13;5115293;28;20172;-58
2022/06/27 06:29:23;;;;;;;23.98;20.25;;;;;;;17.30;99.86;101440.38;5114799;28;20075;-60
2022/06/27 06:31:49;;;;;;;25.85;19.65;;;;;;;17.31;100.00;101431.53;5114838;28;20036;-58
2022/06/27 06:34:15;;;;;;;27.45;19.83;;;;;;;17.33;99.74;101433.19;5115368;28;20114;-58
2022/06/27 06:36:43;;;;;;;22.70;19.10;;;;;;;17.40;99.39;101432.09;5118957;28;20042;-58
2022/06/27 06:39:09;;;;;;;22.90;19.23;;;;;;;17.42;99.49;101423.25;5118400;28;20469;-58
2022/06/27 06:41:36;;;;;;;25.20;19.92;;;;;;;17.43;98.76;101409.97;5119048;28;20035;-59
2022/06/27 06:44:02;;;;;;;26.55;20.13;;;;;;;17.46;98.31;101399.28;5118671;28;20032;-58
2022/06/27 06:46:27;;;;;;;23.73;19.80;;;;;;;17.47;97.34;101379.84;5119094;28;20439;-57
2022/06/27 06:48:57;;;;;;;26.10;19.58;;;;;;;17.46;97.44;101378.13;5118710;28;20042;-60
2022/06/27 06:51:23;;;;;;;23.25;19.17;;;;;;;17.45;96.98;101357.84;5118672;28;20074;-60
2022/06/27 06:53:48;;;;;;;22.58;19.52;;;;;;;17.47;97.87;101366.63;5118698;28;20059;-60
2022/06/27 06:56:14;;;;;;;21.60;18.63;;;;;;;17.54;97.62;101351.38;5118699;28;20043;-59
2022/06/27 06:58:40;;;;;;;23.77;18.40;;;;;;;17.62;96.09;101352.84;5118442;28;20494;-59
2022/06/27 07:01:06;;;;;;;22.23;18.42;;;;;;;17.72;96.96;101353.41;5118146;28;20122;-57
2022/06/27 07:03:33;;;;;;;23.38;18.20;;;;;;;17.89;95.64;101374.00;5118487;28;20031;-59
2022/06/27 07:05:59;;;;;;;20.17;18.02;;;;;;;18.07;94.40;101376.00;5118089;28;20148;-58
2022/06/27 07:08:24;;;;;;;23.60;18.98;;;;;;;18.20;93.08;101369.34;5118220;28;20032;-59
2022/06/27 07:10:50;;;;;;;25.08;17.77;;;;;;;18.22;92.50;101356.91;5118182;28;20080;-59
2022/06/27 07:13:15;;;;;;;23.77;18.90;;;;;;;18.34;91.81;101342.34;5118299;28;20075;-57
2022/06/27 07:15:42;;;;;;;22.60;17.17;;;;;;;18.44;91.65;101341.94;5118308;28;20120;-59
2022/06/27 07:18:09;;;;;;;22.55;18.20;;;;;;;18.44;91.24;101362.28;5117901;28;20416;-58
2022/06/27 07:20:34;;;;;;;27.35;17.42;;;;;;;18.43;91.47;101371.16;5117622;28;20085;-57
2022/06/27 07:23:00;;;;;;;23.65;17.17;;;;;;;18.48;89.86;101378.94;5118034;28;20024;-58
2022/06/27 07:25:25;;;;;;;20.90;17.25;;;;;;;18.58;90.17;101388.25;5117937;28;20032;-57
2022/06/27 07:27:51;;;;;;;25.13;17.65;;;;;;;18.72;89.34;101404.53;5118174;28;20122;-57
2022/06/27 07:30:19;;;;;;;23.08;17.90;;;;;;;18.87;89.23;101406.63;5108682;28;20044;-58
2022/06/27 07:32:45;;;;;;;22.58;16.88;;;;;;;19.04;88.47;101403.31;5096657;28;20034;-59
2022/06/27 07:35:12;;;;;;;22.67;17.27;;;;;;;19.29;87.98;101398.72;5097128;28;20035;-58
2022/06/27 07:37:45;;;;;;;20.10;15.95;;;;;;;19.45;85.87;101397.16;5097090;28;20039;-58
2022/06/27 07:40:11;;;;;;;21.15;16.40;;;;;;;19.54;86.02;101390.66;5097287;28;20346;-59
2022/06/27 07:42:37;;;;;;;20.10;16.60;;;;;;;19.84;85.33;101400.91;5096876;28;20040;-59
2022/06/27 07:45:04;;;;;;;18.35;14.98;;;;;;;19.92;84.32;101401.44;5097877;28;20142;-58
2022/06/27 07:47:29;;;;;;;19.25;14.27;;;;;;;20.09;82.59;101402.41;5096385;28;20035;-59
2022/06/27 07:49:54;;;;;;;19.85;14.10;;;;;;;20.05;81.99;101403.50;5096765;28;20032;-58
2022/06/27 07:52:20;;;;;;;16.85;12.57;;;;;;;20.08;81.23;101413.13;5097245;28;20028;-58
2022/06/27 07:54:45;;;;;;;17.60;12.80;;;;;;;20.08;81.11;101415.81;5097088;28;20426;-60
2022/06/27 07:57:10;;;;;;;15.07;11.57;;;;;;;19.85;81.95;101416.78;5096878;28;20028;-58
2022/06/27 07:59:36;;;;;;;13.95;10.90;;;;;;;19.70;82.03;101420.09;5096942;28;20645;-58
2022/06/27 08:02:02;;;;;;;15.23;11.75;;;;;;;19.54;82.76;101438.44;5096821;28;20027;-56
2022/06/27 08:04:28;;;;;;;15.02;11.27;;;;;;;19.51;82.30;101437.72;5097137;28;20028;-59
2022/06/27 08:06:53;;;;;;;15.80;11.57;;;;;;;19.55;83.33;101434.88;5096661;28;20409;-59
2022/06/27 08:09:20;;;;;;;14.57;11.48;;;;;;;19.70;83.34;101428.91;5096709;28;20111;-59
2022/06/27 08:11:45;;;;;;;14.75;11.57;;;;;;;19.84;82.34;101432.78;5096156;28;20357;-59
2022/06/27 08:14:13;;;;;;;17.08;10.52;;;;;;;19.83;82.45;101439.03;5096214;28;20103;-59
2022/06/27 08:16:40;;;;;;;12.43;9.68;;;;;;;19.89;78.92;101428.16;5096463;28;20024;-59
2022/06/27 08:19:07;;;;;;;16.45;9.65;;;;;;;19.93;79.94;101416.44;5096388;28;20059;-59
2022/06/27 08:21:34;;;;;;;11.43;9.05;;;;;;;19.90;79.47;101421.91;5095866;28;20036;-59
2022/06/27 08:24:03;;;;;;;11.65;9.68;;;;;;;19.82;78.50;101430.19;5096638;28;20439;-59
2022/06/27 08:26:29;;;;;;;12.02;9.10;;;;;;;19.70;77.94;101433.38;5096302;28;20335;-59
2022/06/27 08:28:57;;;;;;;10.80;8.40;;;;;;;19.65;79.97;101445.97;5096197;28;20420;-59
2022/06/27 08:31:22;;;;;;;15.00;9.05;;;;;;;19.55;78.69;101453.47;5096125;28;20035;-59
2022/06/27 08:33:51;;;;;;;10.85;8.57;;;;;;;19.46;81.04;101456.44;5096084;28;20431;-59
2022/06/27 08:36:23;;;;;;;11.32;9.35;;;;;;;19.44;80.48;101460.94;5095752;28;20032;-59
2022/06/27 08:38:51;;;;;;;;;;;;;;;19.55;81.90;101465.88;5096747;28;20050;-59
2022/06/27 08:41:23;;;;;;;12.93;8.40;;;;;;;19.41;82.44;101461.06;5095960;28;19976;-59
2022/06/27 08:43:49;;;;;;;;;;;;;;;19.54;82.58;101457.03;5096309;28;20042;-59
2022/06/27 08:46:16;;;;;;;11.45;8.63;;;;;;;19.42;80.97;101465.44;5095841;28;19923;-58
2022/06/27 08:48:45;;;;;;;12.15;8.63;;;;;;;19.39;80.91;101461.13;5095915;28;20035;-58
2022/06/27 08:51:12;;;;;;;9.52;8.27;;;;;;;19.41;83.03;101453.97;5096021;28;20347;-59
2022/06/27 08:53:38;;;;;;;9.65;8.55;;;;;;;19.40;80.96;101456.66;5096158;28;20093;-60
2022/06/27 08:56:06;;;;;;;11.98;9.60;;;;;;;19.41;78.15;101463.72;5095570;28;20511;-58
2022/06/27 08:58:31;;;;;;;11.85;9.45;;;;;;;19.53;79.69;101454.44;5094782;28;20035;-58
2022/06/27 09:00:57;;;;;;;12.93;9.48;;;;;;;19.62;79.97;101462.88;5095922;28;20032;-58
2022/06/27 09:03:23;;;;;;;13.20;9.52;;;;;;;19.64;78.27;101479.63;5095736;28;20454;-59
2022/06/27 09:05:58;;;;;;;13.68;8.27;;;;;;;19.72;79.99;101489.94;5095746;28;20375;-60
2022/06/27 09:08:26;;;;;;;12.55;8.98;;;;;;;19.88;79.13;101490.16;5095569;28;20032;-59
2022/06/27 09:10:53;;;;;;;10.13;8.30;;;;;;;19.99;78.24;101480.81;5095616;28;20032;-59
2022/06/27 09:13:19;;;;;;;10.98;8.35;;;;;;;20.08;74.99;101483.09;5095697;28;20040;-58
2022/06/27 09:15:54;;;;;;;11.15;7.97;;;;;;;20.17;75.37;101484.47;5095652;28;20103;-59
2022/06/27 09:18:37;;;;;;;9.52;7.43;;;;;;;20.40;75.29;101459.59;5095440;28;20063;-59
2022/06/27 09:21:09;;;;;;;10.70;7.45;;;;;;;20.69;74.20;101455.63;5095312;28;20067;-59
2022/06/27 09:23:47;;;;;;;12.30;7.40;;;;;;;20.74;73.06;101461.59;5095355;28;20032;-57
2022/06/27 09:26:13;;;;;;;9.25;6.93;;;;;;;20.73;71.90;101466.06;5095377;28;20489;-59
2022/06/27 09:28:59;;;;;;;9.35;7.13;;;;;;;20.70;74.22;101467.97;5095516;28;20115;-59
2022/06/27 09:31:25;;;;;;;9.65;6.93;;;;;;;20.72;71.83;101474.97;5095334;28;20024;-58
2022/06/27 09:33:58;;;;;;;10.70;6.43;;;;;;;20.78;73.22;101452.56;5095519;28;20028;-59
2022/06/27 09:36:27;;;;;;;9.95;6.65;;;;;;;20.99;73.15;101471.94;5095532;28;20032;-60
2022/06/27 09:38:52;;;;;;;10.55;7.07;;;;;;;21.09;71.96;101474.13;5095189;28;20028;-60
2022/06/27 09:41:19;;;;;;;10.30;7.45;;;;;;;21.04;71.35;101468.16;5095168;28;20050;-60
2022/06/27 09:43:48;;;;;;;7.38;6.22;;;;;;;21.27;71.50;101461.78;5095121;28;20024;-60
2022/06/27 09:46:15;;;;;;;9.80;6.43;;;;;;;21.41;71.59;101471.75;5095269;28;20032;-59
2022/06/27 09:48:45;;;;;;;8.40;6.13;;;;;;;21.53;68.77;101472.00;5095012;28;20074;-58
2022/06/27 09:51:15;;;;;;;10.30;6.35;;;;;;;21.72;67.78;101471.97;5094941;28;20522;-60
2022/06/27 09:53:44;;;;;;;9.15;6.10;;;;;;;21.74;66.48;101463.91;5095106;28;20032;-59
2022/06/27 09:56:13;;;;;;;9.45;5.40;;;;;;;21.69;66.39;101468.59;5094383;28;20355;-59
2022/06/27 09:58:40;;;;;;;9.38;5.60;;;;;;;21.64;66.47;101474.16;5095008;28;20055;-59
2022/06/27 10:01:05;;;;;;;14.00;5.28;;;;;;;21.54;66.22;101460.44;5095074;28;20028;-59
2022/06/27 10:03:31;;;;;;;8.45;5.53;;;;;;;21.51;66.61;101457.03;5094864;28;20035;-59
2022/06/27 10:05:59;;;;;;;9.77;5.82;;;;;;;21.47;69.07;101458.16;5094955;28;20032;-58
2022/06/27 10:08:25;;;;;;;7.35;5.20;;;;;;;21.40;69.35;101448.72;5094920;28;20138;-59
2022/06/27 10:11:17;;;;;;;8.95;5.55;;;;;;;21.60;69.53;101448.63;5097765;28;20103;-60
2022/06/27 10:13:43;;;;;;;8.68;5.90;;;;;;;21.64;66.76;101447.53;5094212;28;20046;-60
2022/06/27 10:16:14;;;;;;;7.38;5.35;;;;;;;21.79;66.55;101448.56;5098902;28;20064;-59
2022/06/27 10:19:00;;;;;;;6.18;4.20;;;;;;;21.98;67.11;101443.16;5099030;28;20416;-59
2022/06/27 10:21:40;;;;;;;8.25;5.30;;;;;;;22.14;66.41;101447.66;5098801;28;20097;-59
2022/06/27 10:24:26;;;;;;;6.88;4.82;;;;;;;22.30;65.97;101445.03;5098456;28;20044;-60
2022/06/27 10:26:57;;;;;;;7.93;4.55;;;;;;;22.34;64.30;101435.91;5098723;28;20031;-59
2022/06/27 10:29:41;;;;;;;10.40;5.75;;;;;;;22.29;64.77;101440.66;5098264;28;20044;-60
2022/06/27 10:32:27;;;;;;;8.02;4.63;;;;;;;22.21;63.64;101440.19;5098868;28;20020;-59
2022/06/27 10:34:52;;;;;;;7.97;5.25;;;;;;;22.31;62.75;101444.09;5098404;28;20024;-59
2022/06/27 10:37:39;;;;;;;11.13;5.30;;;;;;;22.25;63.41;101449.75;5098426;28;20047;-59
2022/06/27 10:40:19;;;;;;;7.75;4.43;;;;;;;21.87;64.37;101449.00;5097040;28;20454;-60
2022/06/27 10:42:48;;;;;;;8.32;4.78;;;;;;;21.61;62.54;101453.00;5097868;28;20036;-60
2022/06/27 10:45:19;;;;;;;8.30;4.10;;;;;;;21.47;64.35;101456.31;5098486;28;20024;-59
2022/06/27 10:47:45;;;;;;;7.50;3.78;;;;;;;21.29;62.23;101454.59;5098074;28;20108;-59
2022/06/27 10:50:12;;;;;;;6.97;3.67;;;;;;;21.13;63.36;101451.72;5098125;28;20565;-60
2022/06/27 10:52:37;;;;;;;8.07;4.20;;;;;;;21.25;66.05;101449.47;5098050;28;20181;-61
2022/06/27 10:55:23;;;;;;;5.75;4.80;;;;;;;21.16;66.09;101448.06;5098130;28;20111;-59
2022/06/27 10:57:52;;;;;;;9.55;5.45;;;;;;;21.07;66.76;101453.84;5097904;28;20032;-59
2022/06/27 11:00:37;;;;;;;8.27;5.43;;;;;;;21.07;67.80;101448.50;5097515;28;20184;-58
2022/06/27 11:03:03;;;;;;;8.80;5.90;;;;;;;21.02;67.39;101461.16;5097350;28;20479;-59
2022/06/27 11:05:32;;;;;;;9.13;5.38;;;;;;;20.96;68.39;101462.31;5098000;28;20040;-59
2022/06/27 11:07:59;;;;;;;9.23;5.07;;;;;;;21.06;69.36;101452.13;5098374;28;20419;-59
2022/06/27 11:10:24;;;;;;;9.68;5.03;;;;;;;21.08;68.39;101455.56;5097824;28;20427;-59
2022/06/27 11:12:50;;;;;;;6.38;4.72;;;;;;;21.10;66.90;101462.56;5097737;28;20024;-59
2022/06/27 11:15:15;;;;;;;7.05;4.30;;;;;;;21.26;67.13;101464.50;5097693;28;20332;-59
2022/06/27 11:17:42;;;;;;;5.13;3.97;;;;;;;21.38;67.34;101458.59;5097673;28;20089;-60